sensor_id;sensor_type;location;lat;lon;timestamp;temperature;humidity
6293;DHT22;3179;54.350;10.102;2023-06-10T00:01:42;18.40;99.30
6293;DHT22;3179;54.350;10.102;2023-06-10T00:04:12;18.40;99.40
6293;DHT22;3179;54.350;10.102;2023-06-10T00:06:39;18.40;99.30
6293;DHT22;3179;54.350;10.102;2023-06-10T00:09:06;18.40;99.40
6293;DHT22;3179;54.350;10.102;2023-06-10T00:11:37;18.40;99.40
6293;DHT22;3179;54.350;10.102;2023-06-10T00:14:04;18.40;99.40
6293;DHT22;3179;54.350;10.102;2023-06-10T00:16:31;18.30;99.30
6293;DHT22;3179;54.350;10.102;2023-06-10T00:18:59;18.30;99.30
6293;DHT22;3179;54.350;10.102;2023-06-10T00:21:26;18.30;99.40
6293;DHT22;3179;54.350;10.102;2023-06-10T00:23:53;18.30;99.30
6293;DHT22;3179;54.350;10.102;2023-06-10T00:26:20;18.30;99.40
6293;DHT22;3179;54.350;10.102;2023-06-10T00:28:49;18.20;99.40
6293;DHT22;3179;54.350;10.102;2023-06-10T00:31:16;18.20;99.50
6293;DHT22;3179;54.350;10.102;2023-06-10T00:33:42;18.20;99.40
6293;DHT22;3179;54.350;10.102;2023-06-10T00:36:09;18.10;99.30
6293;DHT22;3179;54.350;10.102;2023-06-10T00:38:36;18.10;99.30
6293;DHT22;3179;54.350;10.102;2023-06-10T00:41:03;18.10;99.40
6293;DHT22;3179;54.350;10.102;2023-06-10T00:43:29;18.10;99.40
6293;DHT22;3179;54.350;10.102;2023-06-10T00:45:58;18.10;99.40
6293;DHT22;3179;54.350;10.102;2023-06-10T00:48:25;18.10;99.40
6293;DHT22;3179;54.350;10.102;2023-06-10T00:50:52;18.10;99.40
6293;DHT22;3179;54.350;10.102;2023-06-10T00:53:19;18.10;99.40
6293;DHT22;3179;54.350;10.102;2023-06-10T00:55:46;18.00;99.70
6293;DHT22;3179;54.350;10.102;2023-06-10T00:58:14;18.00;99.30
6293;DHT22;3179;54.350;10.102;2023-06-10T01:00:41;18.00;99.30
6293;DHT22;3179;54.350;10.102;2023-06-10T01:03:09;18.00;99.30
6293;DHT22;3179;54.350;10.102;2023-06-10T01:05:37;17.90;99.30
6293;DHT22;3179;54.350;10.102;2023-06-10T01:08:09;18.00;99.30
6293;DHT22;3179;54.350;10.102;2023-06-10T01:10:43;18.00;99.40
6293;DHT22;3179;54.350;10.102;2023-06-10T01:13:13;17.90;99.30
6293;DHT22;3179;54.350;10.102;2023-06-10T01:15:40;17.90;99.30
6293;DHT22;3179;54.350;10.102;2023-06-10T01:18:09;17.90;99.20
6293;DHT22;3179;54.350;10.102;2023-06-10T01:20:41;17.90;99.20
6293;DHT22;3179;54.350;10.102;2023-06-10T01:23:10;17.90;99.30
6293;DHT22;3179;54.350;10.102;2023-06-10T01:25:38;17.80;99.30
6293;DHT22;3179;54.350;10.102;2023-06-10T01:28:12;17.80;99.10
6293;DHT22;3179;54.350;10.102;2023-06-10T01:30:44;17.80;99.20
6293;DHT22;3179;54.350;10.102;2023-06-10T01:33:14;17.80;99.20
6293;DHT22;3179;54.350;10.102;2023-06-10T01:35:43;17.70;99.10
6293;DHT22;3179;54.350;10.102;2023-06-10T01:38:12;17.70;99.20
6293;DHT22;3179;54.350;10.102;2023-06-10T01:40:41;17.70;99.20
6293;DHT22;3179;54.350;10.102;2023-06-10T01:43:08;17.60;99.20
6293;DHT22;3179;54.350;10.102;2023-06-10T01:45:35;17.60;99.20
6293;DHT22;3179;54.350;10.102;2023-06-10T01:48:02;17.60;99.10
6293;DHT22;3179;54.350;10.102;2023-06-10T01:50:29;17.60;99.10
6293;DHT22;3179;54.350;10.102;2023-06-10T01:52:57;17.60;99.00
6293;DHT22;3179;54.350;10.102;2023-06-10T01:55:25;17.60;99.00
6293;DHT22;3179;54.350;10.102;2023-06-10T01:57:52;17.60;99.00
6293;DHT22;3179;54.350;10.102;2023-06-10T02:00:19;17.60;99.00
6293;DHT22;3179;54.350;10.102;2023-06-10T02:02:46;17.50;99.00
6293;DHT22;3179;54.350;10.102;2023-06-10T02:05:12;17.50;99.00
6293;DHT22;3179;54.350;10.102;2023-06-10T02:07:39;17.50;99.00
6293;DHT22;3179;54.350;10.102;2023-06-10T02:10:07;17.50;99.10
6293;DHT22;3179;54.350;10.102;2023-06-10T02:12:36;17.50;99.20
6293;DHT22;3179;54.350;10.102;2023-06-10T02:15:02;17.40;99.20
6293;DHT22;3179;54.350;10.102;2023-06-10T02:17:30;17.50;99.10
6293;DHT22;3179;54.350;10.102;2023-06-10T02:19:58;17.40;99.10
6293;DHT22;3179;54.350;10.102;2023-06-10T02:22:25;17.40;99.10
6293;DHT22;3179;54.350;10.102;2023-06-10T02:24:52;17.40;99.10
6293;DHT22;3179;54.350;10.102;2023-06-10T02:27:19;17.40;99.20
6293;DHT22;3179;54.350;10.102;2023-06-10T02:29:47;17.40;99.20
6293;DHT22;3179;54.350;10.102;2023-06-10T02:32:14;17.40;99.30
6293;DHT22;3179;54.350;10.102;2023-06-10T02:34:40;17.40;99.30
6293;DHT22;3179;54.350;10.102;2023-06-10T02:37:09;17.30;99.40
6293;DHT22;3179;54.350;10.102;2023-06-10T02:39:36;17.30;99.50
6293;DHT22;3179;54.350;10.102;2023-06-10T02:42:03;17.30;99.50
6293;DHT22;3179;54.350;10.102;2023-06-10T02:44:31;17.30;99.70
6293;DHT22;3179;54.350;10.102;2023-06-10T02:46:59;17.20;99.70
6293;DHT22;3179;54.350;10.102;2023-06-10T02:49:26;17.30;99.80
6293;DHT22;3179;54.350;10.102;2023-06-10T02:51:53;17.20;99.70
6293;DHT22;3179;54.350;10.102;2023-06-10T02:54:20;17.20;99.90
6293;DHT22;3179;54.350;10.102;2023-06-10T02:56:47;17.20;99.70
6293;DHT22;3179;54.350;10.102;2023-06-10T02:59:14;17.30;99.70
6293;DHT22;3179;54.350;10.102;2023-06-10T03:01:42;17.30;99.70
6293;DHT22;3179;54.350;10.102;2023-06-10T03:04:10;17.30;99.70
6293;DHT22;3179;54.350;10.102;2023-06-10T03:06:39;17.30;99.90
6293;DHT22;3179;54.350;10.102;2023-06-10T03:09:06;17.20;99.80
6293;DHT22;3179;54.350;10.102;2023-06-10T03:11:33;17.20;99.90
6293;DHT22;3179;54.350;10.102;2023-06-10T03:14:00;17.10;99.90
6293;DHT22;3179;54.350;10.102;2023-06-10T03:16:27;17.20;99.90
6293;DHT22;3179;54.350;10.102;2023-06-10T03:18:55;17.20;99.90
6293;DHT22;3179;54.350;10.102;2023-06-10T03:21:23;17.20;99.90
6293;DHT22;3179;54.350;10.102;2023-06-10T03:23:51;17.20;99.90
6293;DHT22;3179;54.350;10.102;2023-06-10T03:26:17;17.10;99.90
6293;DHT22;3179;54.350;10.102;2023-06-10T03:28:47;17.10;99.90
6293;DHT22;3179;54.350;10.102;2023-06-10T03:31:13;17.20;99.90
6293;DHT22;3179;54.350;10.102;2023-06-10T03:33:42;17.20;99.90
6293;DHT22;3179;54.350;10.102;2023-06-10T03:36:09;17.10;99.90
6293;DHT22;3179;54.350;10.102;2023-06-10T03:38:37;17.10;99.90
6293;DHT22;3179;54.350;10.102;2023-06-10T03:41:04;17.10;99.90
6293;DHT22;3179;54.350;10.102;2023-06-10T03:43:30;17.10;99.90
6293;DHT22;3179;54.350;10.102;2023-06-10T03:45:57;17.10;99.90
6293;DHT22;3179;54.350;10.102;2023-06-10T03:48:24;17.10;99.90
6293;DHT22;3179;54.350;10.102;2023-06-10T03:50:51;17.10;99.90
6293;DHT22;3179;54.350;10.102;2023-06-10T03:53:18;17.10;99.90
6293;DHT22;3179;54.350;10.102;2023-06-10T03:55:46;17.10;99.90
6293;DHT22;3179;54.350;10.102;2023-06-10T03:58:13;17.10;99.90
6293;DHT22;3179;54.350;10.102;2023-06-10T04:00:40;17.10;99.90
6293;DHT22;3179;54.350;10.102;2023-06-10T04:03:07;17.10;99.90
6293;DHT22;3179;54.350;10.102;2023-06-10T04:05:39;17.10;99.90
6293;DHT22;3179;54.350;10.102;2023-06-10T04:08:06;17.10;99.90
6293;DHT22;3179;54.350;10.102;2023-06-10T04:10:34;17.10;99.90
6293;DHT22;3179;54.350;10.102;2023-06-10T04:13:02;17.10;99.90
6293;DHT22;3179;54.350;10.102;2023-06-10T04:15:29;17.10;99.90
6293;DHT22;3179;54.350;10.102;2023-06-10T04:17:58;17.10;99.90
6293;DHT22;3179;54.350;10.102;2023-06-10T04:20:25;17.10;99.90
6293;DHT22;3179;54.350;10.102;2023-06-10T04:22:52;17.10;99.90
6293;DHT22;3179;54.350;10.102;2023-06-10T04:25:18;17.10;99.90
6293;DHT22;3179;54.350;10.102;2023-06-10T04:27:45;17.10;99.90
6293;DHT22;3179;54.350;10.102;2023-06-10T04:30:14;17.10;99.90
6293;DHT22;3179;54.350;10.102;2023-06-10T04:32:41;17.10;99.90
6293;DHT22;3179;54.350;10.102;2023-06-10T04:35:10;17.20;99.90
6293;DHT22;3179;54.350;10.102;2023-06-10T04:37:37;17.20;99.90
6293;DHT22;3179;54.350;10.102;2023-06-10T04:40:05;17.20;99.90
6293;DHT22;3179;54.350;10.102;2023-06-10T04:42:32;17.10;99.90
6293;DHT22;3179;54.350;10.102;2023-06-10T04:44:59;17.20;99.90
6293;DHT22;3179;54.350;10.102;2023-06-10T04:47:27;17.10;99.90
6293;DHT22;3179;54.350;10.102;2023-06-10T04:49:54;17.20;99.90
6293;DHT22;3179;54.350;10.102;2023-06-10T04:52:21;17.10;99.90
6293;DHT22;3179;54.350;10.102;2023-06-10T04:54:48;17.20;99.90
6293;DHT22;3179;54.350;10.102;2023-06-10T04:57:15;17.20;99.90
6293;DHT22;3179;54.350;10.102;2023-06-10T04:59:41;17.20;99.90
6293;DHT22;3179;54.350;10.102;2023-06-10T05:02:08;17.20;99.90
6293;DHT22;3179;54.350;10.102;2023-06-10T05:04:36;17.20;99.90
6293;DHT22;3179;54.350;10.102;2023-06-10T05:07:03;17.20;99.90
6293;DHT22;3179;54.350;10.102;2023-06-10T05:09:30;17.20;99.90
6293;DHT22;3179;54.350;10.102;2023-06-10T05:11:58;17.20;99.90
6293;DHT22;3179;54.350;10.102;2023-06-10T05:14:25;17.30;99.90
6293;DHT22;3179;54.350;10.102;2023-06-10T05:16:53;17.30;99.90
6293;DHT22;3179;54.350;10.102;2023-06-10T05:19:21;17.20;99.90
6293;DHT22;3179;54.350;10.102;2023-06-10T05:21:49;17.30;99.90
6293;DHT22;3179;54.350;10.102;2023-06-10T05:24:16;17.30;99.90
6293;DHT22;3179;54.350;10.102;2023-06-10T05:26:43;17.30;99.90
6293;DHT22;3179;54.350;10.102;2023-06-10T05:29:09;17.40;99.90
6293;DHT22;3179;54.350;10.102;2023-06-10T05:31:36;17.40;99.90
6293;DHT22;3179;54.350;10.102;2023-06-10T05:34:03;17.40;99.90
6293;DHT22;3179;54.350;10.102;2023-06-10T05:36:30;17.50;99.90
6293;DHT22;3179;54.350;10.102;2023-06-10T05:38:59;17.50;99.90
6293;DHT22;3179;54.350;10.102;2023-06-10T05:41:26;17.50;99.90
6293;DHT22;3179;54.350;10.102;2023-06-10T05:43:52;17.50;99.90
6293;DHT22;3179;54.350;10.102;2023-06-10T05:46:19;17.60;99.90
6293;DHT22;3179;54.350;10.102;2023-06-10T05:48:46;17.60;99.90
6293;DHT22;3179;54.350;10.102;2023-06-10T05:51:13;17.70;99.90
6293;DHT22;3179;54.350;10.102;2023-06-10T05:53:40;17.70;99.90
6293;DHT22;3179;54.350;10.102;2023-06-10T05:56:08;17.70;99.90
6293;DHT22;3179;54.350;10.102;2023-06-10T05:58:35;17.70;99.90
6293;DHT22;3179;54.350;10.102;2023-06-10T06:01:02;17.70;99.90
6293;DHT22;3179;54.350;10.102;2023-06-10T06:03:28;17.80;99.90
6293;DHT22;3179;54.350;10.102;2023-06-10T06:05:55;17.80;99.90
6293;DHT22;3179;54.350;10.102;2023-06-10T06:08:22;17.90;99.90
6293;DHT22;3179;54.350;10.102;2023-06-10T06:10:49;18.00;99.90
6293;DHT22;3179;54.350;10.102;2023-06-10T06:13:17;18.00;99.90
6293;DHT22;3179;54.350;10.102;2023-06-10T06:15:44;18.00;99.90
6293;DHT22;3179;54.350;10.102;2023-06-10T06:18:11;18.10;99.90
6293;DHT22;3179;54.350;10.102;2023-06-10T06:20:38;18.10;99.90
6293;DHT22;3179;54.350;10.102;2023-06-10T06:23:04;18.10;99.90
6293;DHT22;3179;54.350;10.102;2023-06-10T06:25:31;18.20;99.90
6293;DHT22;3179;54.350;10.102;2023-06-10T06:27:58;18.20;99.90
6293;DHT22;3179;54.350;10.102;2023-06-10T06:30:26;18.30;99.90
6293;DHT22;3179;54.350;10.102;2023-06-10T06:32:53;18.30;99.90
6293;DHT22;3179;54.350;10.102;2023-06-10T06:35:20;18.30;99.90
6293;DHT22;3179;54.350;10.102;2023-06-10T06:37:47;18.40;99.90
6293;DHT22;3179;54.350;10.102;2023-06-10T06:40:14;18.40;99.90
6293;DHT22;3179;54.350;10.102;2023-06-10T06:42:41;18.50;99.90
6293;DHT22;3179;54.350;10.102;2023-06-10T06:45:08;18.50;99.90
6293;DHT22;3179;54.350;10.102;2023-06-10T06:47:36;18.50;99.90
6293;DHT22;3179;54.350;10.102;2023-06-10T06:50:04;18.50;99.90
6293;DHT22;3179;54.350;10.102;2023-06-10T06:52:30;18.50;99.90
6293;DHT22;3179;54.350;10.102;2023-06-10T06:54:57;18.50;99.90
6293;DHT22;3179;54.350;10.102;2023-06-10T06:57:24;18.60;99.90
6293;DHT22;3179;54.350;10.102;2023-06-10T06:59:51;18.70;99.90
6293;DHT22;3179;54.350;10.102;2023-06-10T07:02:17;18.70;99.90
6293;DHT22;3179;54.350;10.102;2023-06-10T07:04:46;18.80;99.90
6293;DHT22;3179;54.350;10.102;2023-06-10T07:07:14;18.90;99.90
6293;DHT22;3179;54.350;10.102;2023-06-10T07:09:41;18.90;99.90
6293;DHT22;3179;54.350;10.102;2023-06-10T07:12:08;19.00;99.90
6293;DHT22;3179;54.350;10.102;2023-06-10T07:14:35;19.00;99.90
6293;DHT22;3179;54.350;10.102;2023-06-10T07:17:02;19.00;99.90
6293;DHT22;3179;54.350;10.102;2023-06-10T07:19:29;19.00;99.90
6293;DHT22;3179;54.350;10.102;2023-06-10T07:21:57;19.10;99.90
6293;DHT22;3179;54.350;10.102;2023-06-10T07:24:24;19.10;99.90
6293;DHT22;3179;54.350;10.102;2023-06-10T07:26:51;19.10;99.90
6293;DHT22;3179;54.350;10.102;2023-06-10T07:29:18;19.00;99.90
6293;DHT22;3179;54.350;10.102;2023-06-10T07:31:44;19.10;99.90
6293;DHT22;3179;54.350;10.102;2023-06-10T07:34:11;19.20;99.90
6293;DHT22;3179;54.350;10.102;2023-06-10T07:36:38;19.20;99.90
6293;DHT22;3179;54.350;10.102;2023-06-10T07:39:06;19.20;99.90
6293;DHT22;3179;54.350;10.102;2023-06-10T07:41:33;19.20;99.90
6293;DHT22;3179;54.350;10.102;2023-06-10T07:44:00;19.30;99.90
6293;DHT22;3179;54.350;10.102;2023-06-10T07:46:27;19.30;99.90
6293;DHT22;3179;54.350;10.102;2023-06-10T07:48:54;19.30;99.90
6293;DHT22;3179;54.350;10.102;2023-06-10T07:51:22;19.40;99.90
6293;DHT22;3179;54.350;10.102;2023-06-10T07:53:48;19.50;99.90
6293;DHT22;3179;54.350;10.102;2023-06-10T07:56:17;19.50;99.90
6293;DHT22;3179;54.350;10.102;2023-06-10T07:58:44;19.50;99.90
6293;DHT22;3179;54.350;10.102;2023-06-10T08:01:10;19.50;99.90
6293;DHT22;3179;54.350;10.102;2023-06-10T08:03:37;19.50;99.90
6293;DHT22;3179;54.350;10.102;2023-06-10T08:06:04;19.50;99.90
6293;DHT22;3179;54.350;10.102;2023-06-10T08:08:32;19.50;99.90
6293;DHT22;3179;54.350;10.102;2023-06-10T08:11:00;19.50;99.90
6293;DHT22;3179;54.350;10.102;2023-06-10T08:13:28;19.50;99.90
6293;DHT22;3179;54.350;10.102;2023-06-10T08:15:54;19.50;99.90
6293;DHT22;3179;54.350;10.102;2023-06-10T08:18:21;19.50;99.90
6293;DHT22;3179;54.350;10.102;2023-06-10T08:20:48;19.60;99.90
6293;DHT22;3179;54.350;10.102;2023-06-10T08:23:15;19.60;99.90
6293;DHT22;3179;54.350;10.102;2023-06-10T08:25:42;19.70;99.90
6293;DHT22;3179;54.350;10.102;2023-06-10T08:28:09;19.70;99.90
6293;DHT22;3179;54.350;10.102;2023-06-10T08:30:37;19.80;99.90
6293;DHT22;3179;54.350;10.102;2023-06-10T08:33:04;19.80;99.90
6293;DHT22;3179;54.350;10.102;2023-06-10T08:35:30;19.80;99.90
6293;DHT22;3179;54.350;10.102;2023-06-10T08:37:57;20.00;99.90
6293;DHT22;3179;54.350;10.102;2023-06-10T08:40:24;20.10;99.90
6293;DHT22;3179;54.350;10.102;2023-06-10T08:42:59;20.10;99.90
6293;DHT22;3179;54.350;10.102;2023-06-10T08:45:29;20.10;99.90
6293;DHT22;3179;54.350;10.102;2023-06-10T08:47:59;20.20;99.90
6293;DHT22;3179;54.350;10.102;2023-06-10T08:50:28;20.20;99.90
6293;DHT22;3179;54.350;10.102;2023-06-10T08:52:58;20.20;99.90
6293;DHT22;3179;54.350;10.102;2023-06-10T08:55:29;20.30;99.90
6293;DHT22;3179;54.350;10.102;2023-06-10T08:57:57;20.40;99.90
6293;DHT22;3179;54.350;10.102;2023-06-10T09:00:25;20.50;99.90
6293;DHT22;3179;54.350;10.102;2023-06-10T09:02:52;20.50;99.90
6293;DHT22;3179;54.350;10.102;2023-06-10T09:05:20;20.60;99.90
6293;DHT22;3179;54.350;10.102;2023-06-10T09:07:52;20.70;99.90
6293;DHT22;3179;54.350;10.102;2023-06-10T09:10:19;20.80;99.90
6293;DHT22;3179;54.350;10.102;2023-06-10T09:12:46;20.80;99.90
6293;DHT22;3179;54.350;10.102;2023-06-10T09:15:13;20.90;99.90
6293;DHT22;3179;54.350;10.102;2023-06-10T09:17:42;21.00;99.80
6293;DHT22;3179;54.350;10.102;2023-06-10T09:20:10;21.00;99.60
6293;DHT22;3179;54.350;10.102;2023-06-10T09:22:40;21.00;99.80
6293;DHT22;3179;54.350;10.102;2023-06-10T09:25:08;21.10;99.70
6293;DHT22;3179;54.350;10.102;2023-06-10T09:27:44;21.10;99.60
6293;DHT22;3179;54.350;10.102;2023-06-10T09:30:24;21.10;99.50
6293;DHT22;3179;54.350;10.102;2023-06-10T09:32:52;21.20;99.40
6293;DHT22;3179;54.350;10.102;2023-06-10T09:35:21;21.20;99.40
6293;DHT22;3179;54.350;10.102;2023-06-10T09:37:52;21.20;99.50
6293;DHT22;3179;54.350;10.102;2023-06-10T09:40:19;21.30;99.40
6293;DHT22;3179;54.350;10.102;2023-06-10T09:42:46;21.40;99.40
6293;DHT22;3179;54.350;10.102;2023-06-10T09:45:20;21.60;99.50
6293;DHT22;3179;54.350;10.102;2023-06-10T09:47:47;21.70;99.40
6293;DHT22;3179;54.350;10.102;2023-06-10T09:50:14;21.70;99.20
6293;DHT22;3179;54.350;10.102;2023-06-10T09:52:41;21.70;99.00
6293;DHT22;3179;54.350;10.102;2023-06-10T09:55:10;21.70;99.10
6293;DHT22;3179;54.350;10.102;2023-06-10T09:57:37;21.70;99.20
6293;DHT22;3179;54.350;10.102;2023-06-10T10:00:05;21.80;99.20
6293;DHT22;3179;54.350;10.102;2023-06-10T10:02:44;21.90;99.20
6293;DHT22;3179;54.350;10.102;2023-06-10T10:05:13;22.10;99.00
6293;DHT22;3179;54.350;10.102;2023-06-10T10:07:41;22.10;98.70
6293;DHT22;3179;54.350;10.102;2023-06-10T10:10:10;22.10;98.80
6293;DHT22;3179;54.350;10.102;2023-06-10T10:12:38;22.00;98.60
6293;DHT22;3179;54.350;10.102;2023-06-10T10:15:06;22.10;98.60
6293;DHT22;3179;54.350;10.102;2023-06-10T10:17:34;22.20;99.00
6293;DHT22;3179;54.350;10.102;2023-06-10T10:20:05;22.30;98.80
6293;DHT22;3179;54.350;10.102;2023-06-10T10:22:37;22.30;98.60
6293;DHT22;3179;54.350;10.102;2023-06-10T10:25:11;22.40;98.30
6293;DHT22;3179;54.350;10.102;2023-06-10T10:27:44;22.40;98.40
6293;DHT22;3179;54.350;10.102;2023-06-10T10:30:11;22.50;98.30
6293;DHT22;3179;54.350;10.102;2023-06-10T10:32:46;22.60;98.40
6293;DHT22;3179;54.350;10.102;2023-06-10T10:35:18;22.70;98.20
6293;DHT22;3179;54.350;10.102;2023-06-10T10:37:47;22.70;98.20
6293;DHT22;3179;54.350;10.102;2023-06-10T10:40:16;22.80;98.00
6293;DHT22;3179;54.350;10.102;2023-06-10T10:42:43;22.80;97.90
6293;DHT22;3179;54.350;10.102;2023-06-10T10:45:10;22.80;97.90
6293;DHT22;3179;54.350;10.102;2023-06-10T10:47:38;22.90;97.90
6293;DHT22;3179;54.350;10.102;2023-06-10T10:50:14;22.90;97.90
6293;DHT22;3179;54.350;10.102;2023-06-10T10:52:52;23.00;97.70
6293;DHT22;3179;54.350;10.102;2023-06-10T10:55:20;23.00;97.20
6293;DHT22;3179;54.350;10.102;2023-06-10T10:57:54;22.90;97.50
6293;DHT22;3179;54.350;10.102;2023-06-10T11:00:27;22.90;97.40
6293;DHT22;3179;54.350;10.102;2023-06-10T11:02:58;23.00;97.50
6293;DHT22;3179;54.350;10.102;2023-06-10T11:05:36;23.20;97.40
6293;DHT22;3179;54.350;10.102;2023-06-10T11:08:04;23.20;97.20
6293;DHT22;3179;54.350;10.102;2023-06-10T11:10:32;23.20;97.30
6293;DHT22;3179;54.350;10.102;2023-06-10T11:13:00;23.30;97.10
6293;DHT22;3179;54.350;10.102;2023-06-10T11:15:29;23.40;97.30
6293;DHT22;3179;54.350;10.102;2023-06-10T11:18:10;23.50;97.20
6293;DHT22;3179;54.350;10.102;2023-06-10T11:20:52;23.60;96.80
6293;DHT22;3179;54.350;10.102;2023-06-10T11:23:33;23.60;96.40
6293;DHT22;3179;54.350;10.102;2023-06-10T11:26:18;23.70;96.80
6293;DHT22;3179;54.350;10.102;2023-06-10T11:29:06;23.80;96.60
6293;DHT22;3179;54.350;10.102;2023-06-10T11:31:42;23.80;96.40
6293;DHT22;3179;54.350;10.102;2023-06-10T11:34:09;23.80;96.60
6293;DHT22;3179;54.350;10.102;2023-06-10T11:36:38;23.90;96.60
6293;DHT22;3179;54.350;10.102;2023-06-10T11:39:11;23.90;96.20
6293;DHT22;3179;54.350;10.102;2023-06-10T11:41:40;23.90;96.50
6293;DHT22;3179;54.350;10.102;2023-06-10T11:44:10;23.90;96.20
6293;DHT22;3179;54.350;10.102;2023-06-10T11:46:38;24.00;96.20
6293;DHT22;3179;54.350;10.102;2023-06-10T11:49:06;24.10;96.40
6293;DHT22;3179;54.350;10.102;2023-06-10T11:51:35;24.10;96.20
6293;DHT22;3179;54.350;10.102;2023-06-10T11:54:03;24.20;96.20
6293;DHT22;3179;54.350;10.102;2023-06-10T11:56:35;24.20;96.30
6293;DHT22;3179;54.350;10.102;2023-06-10T11:59:05;24.30;95.80
6293;DHT22;3179;54.350;10.102;2023-06-10T12:01:34;24.40;95.80
6293;DHT22;3179;54.350;10.102;2023-06-10T12:04:03;24.30;95.90
6293;DHT22;3179;54.350;10.102;2023-06-10T12:06:40;24.30;96.00
6293;DHT22;3179;54.350;10.102;2023-06-10T12:09:17;24.40;95.30
6293;DHT22;3179;54.350;10.102;2023-06-10T12:11:45;24.20;95.40
6293;DHT22;3179;54.350;10.102;2023-06-10T12:16:58;24.10;95.60
6293;DHT22;3179;54.350;10.102;2023-06-10T12:19:25;24.20;95.70
6293;DHT22;3179;54.350;10.102;2023-06-10T12:21:53;24.20;95.60
6293;DHT22;3179;54.350;10.102;2023-06-10T12:24:20;24.20;95.70
6293;DHT22;3179;54.350;10.102;2023-06-10T12:26:47;24.40;95.80
6293;DHT22;3179;54.350;10.102;2023-06-10T12:29:23;24.50;95.80
6293;DHT22;3179;54.350;10.102;2023-06-10T12:31:55;24.60;95.60
6293;DHT22;3179;54.350;10.102;2023-06-10T12:34:32;24.70;95.60
6293;DHT22;3179;54.350;10.102;2023-06-10T12:36:59;24.70;95.50
6293;DHT22;3179;54.350;10.102;2023-06-10T12:39:26;24.80;95.60
6293;DHT22;3179;54.350;10.102;2023-06-10T12:41:54;24.80;95.50
6293;DHT22;3179;54.350;10.102;2023-06-10T12:44:32;24.80;95.60
6293;DHT22;3179;54.350;10.102;2023-06-10T12:47:00;25.00;95.30
6293;DHT22;3179;54.350;10.102;2023-06-10T12:49:27;25.00;95.40
6293;DHT22;3179;54.350;10.102;2023-06-10T12:51:54;25.10;95.50
6293;DHT22;3179;54.350;10.102;2023-06-10T12:54:21;25.20;95.40
6293;DHT22;3179;54.350;10.102;2023-06-10T12:56:48;25.20;95.20
6293;DHT22;3179;54.350;10.102;2023-06-10T12:59:15;25.30;95.00
6293;DHT22;3179;54.350;10.102;2023-06-10T13:01:43;25.20;94.90
6293;DHT22;3179;54.350;10.102;2023-06-10T13:04:10;25.30;94.90
6293;DHT22;3179;54.350;10.102;2023-06-10T13:06:38;25.30;94.80
6293;DHT22;3179;54.350;10.102;2023-06-10T13:09:05;25.30;94.90
6293;DHT22;3179;54.350;10.102;2023-06-10T13:11:34;25.40;94.80
6293;DHT22;3179;54.350;10.102;2023-06-10T13:14:02;25.70;94.70
6293;DHT22;3179;54.350;10.102;2023-06-10T13:16:30;26.00;94.50
6293;DHT22;3179;54.350;10.102;2023-06-10T13:18:58;26.40;94.30
6293;DHT22;3179;54.350;10.102;2023-06-10T13:21:26;26.60;94.00
6293;DHT22;3179;54.350;10.102;2023-06-10T13:23:53;26.80;93.70
6293;DHT22;3179;54.350;10.102;2023-06-10T13:26:19;27.10;93.70
6293;DHT22;3179;54.350;10.102;2023-06-10T13:28:47;27.30;93.30
6293;DHT22;3179;54.350;10.102;2023-06-10T13:31:13;27.40;92.90
6293;DHT22;3179;54.350;10.102;2023-06-10T13:33:40;27.50;92.90
6293;DHT22;3179;54.350;10.102;2023-06-10T13:36:10;27.60;92.00
6293;DHT22;3179;54.350;10.102;2023-06-10T13:38:37;27.70;92.40
6293;DHT22;3179;54.350;10.102;2023-06-10T13:41:04;27.80;92.50
6293;DHT22;3179;54.350;10.102;2023-06-10T13:43:31;28.10;92.60
6293;DHT22;3179;54.350;10.102;2023-06-10T13:45:58;28.30;92.60
6293;DHT22;3179;54.350;10.102;2023-06-10T13:48:25;28.50;92.30
6293;DHT22;3179;54.350;10.102;2023-06-10T13:50:52;28.70;92.20
6293;DHT22;3179;54.350;10.102;2023-06-10T13:53:20;28.90;91.90
6293;DHT22;3179;54.350;10.102;2023-06-10T13:55:47;29.10;91.50
6293;DHT22;3179;54.350;10.102;2023-06-10T13:58:14;29.20;91.30
6293;DHT22;3179;54.350;10.102;2023-06-10T14:00:40;29.30;91.10
6293;DHT22;3179;54.350;10.102;2023-06-10T14:03:07;29.50;91.00
6293;DHT22;3179;54.350;10.102;2023-06-10T14:05:34;29.60;90.80
6293;DHT22;3179;54.350;10.102;2023-06-10T14:08:01;29.60;90.40
6293;DHT22;3179;54.350;10.102;2023-06-10T14:10:29;29.80;89.60
6293;DHT22;3179;54.350;10.102;2023-06-10T14:12:56;29.80;90.00
6293;DHT22;3179;54.350;10.102;2023-06-10T14:15:23;29.90;90.00
6293;DHT22;3179;54.350;10.102;2023-06-10T14:17:50;29.90;89.50
6293;DHT22;3179;54.350;10.102;2023-06-10T14:20:16;29.90;89.60
6293;DHT22;3179;54.350;10.102;2023-06-10T14:22:46;30.10;89.70
6293;DHT22;3179;54.350;10.102;2023-06-10T14:25:13;30.20;88.90
6293;DHT22;3179;54.350;10.102;2023-06-10T14:27:41;30.40;88.90
6293;DHT22;3179;54.350;10.102;2023-06-10T14:30:09;30.50;87.70
6293;DHT22;3179;54.350;10.102;2023-06-10T14:32:36;30.40;87.00
6293;DHT22;3179;54.350;10.102;2023-06-10T14:35:04;30.50;87.20
6293;DHT22;3179;54.350;10.102;2023-06-10T14:37:49;30.60;87.10
6293;DHT22;3179;54.350;10.102;2023-06-10T14:40:15;30.70;83.30
6293;DHT22;3179;54.350;10.102;2023-06-10T14:42:44;30.70;86.80
6293;DHT22;3179;54.350;10.102;2023-06-10T14:45:10;30.70;85.90
6293;DHT22;3179;54.350;10.102;2023-06-10T14:47:37;30.50;85.70
6293;DHT22;3179;54.350;10.102;2023-06-10T14:50:04;30.20;85.70
6293;DHT22;3179;54.350;10.102;2023-06-10T14:52:32;29.90;85.90
6293;DHT22;3179;54.350;10.102;2023-06-10T14:55:01;29.50;86.10
6293;DHT22;3179;54.350;10.102;2023-06-10T14:57:28;29.20;86.30
6293;DHT22;3179;54.350;10.102;2023-06-10T14:59:57;29.00;86.30
6293;DHT22;3179;54.350;10.102;2023-06-10T15:02:24;28.90;84.90
6293;DHT22;3179;54.350;10.102;2023-06-10T15:04:52;29.10;85.30
6293;DHT22;3179;54.350;10.102;2023-06-10T15:07:18;29.30;84.00
6293;DHT22;3179;54.350;10.102;2023-06-10T15:09:45;29.50;84.00
6293;DHT22;3179;54.350;10.102;2023-06-10T15:12:12;29.70;83.50
6293;DHT22;3179;54.350;10.102;2023-06-10T15:14:39;30.00;83.50
6293;DHT22;3179;54.350;10.102;2023-06-10T15:17:08;30.30;83.30
6293;DHT22;3179;54.350;10.102;2023-06-10T15:19:34;30.50;82.40
6293;DHT22;3179;54.350;10.102;2023-06-10T15:22:01;30.60;83.00
6293;DHT22;3179;54.350;10.102;2023-06-10T15:24:28;30.60;82.80
6293;DHT22;3179;54.350;10.102;2023-06-10T15:26:55;30.50;81.80
6293;DHT22;3179;54.350;10.102;2023-06-10T15:29:21;30.40;82.70
6293;DHT22;3179;54.350;10.102;2023-06-10T15:31:48;30.40;83.00
6293;DHT22;3179;54.350;10.102;2023-06-10T15:34:16;30.20;82.60
6293;DHT22;3179;54.350;10.102;2023-06-10T15:36:43;30.00;82.60
6293;DHT22;3179;54.350;10.102;2023-06-10T15:39:10;30.00;83.50
6293;DHT22;3179;54.350;10.102;2023-06-10T15:41:37;29.80;83.80
6293;DHT22;3179;54.350;10.102;2023-06-10T15:44:03;29.70;83.60
6293;DHT22;3179;54.350;10.102;2023-06-10T15:46:30;29.50;83.80
6293;DHT22;3179;54.350;10.102;2023-06-10T15:48:59;29.40;84.80
6293;DHT22;3179;54.350;10.102;2023-06-10T15:51:27;29.20;84.80
6293;DHT22;3179;54.350;10.102;2023-06-10T15:53:54;28.90;85.20